Malartic, Canada
Current Conditions -  °F | °C
As of 11:00 AM on Wednesday 28 Jan 2015 (Local Time) from CYVO Reporting Station
Clear Clear  
Wind Chill: -13°   Ceiling: Unl
Heat Index:   Visibility: 15mi
Dew Point: -6°   Wind: 7mph
Humidity: 78%   Direction: 150°SSE
Pressure: 30.16"   Gusts: NA
Location:  48.13°N, 78.12°W
Report Text: CYVO 281600Z 15006KT 15SM SKC M18/M21 A3016 RMK SLP254
Loading
Personal Weather Stations






























Interactive Weather Map New forecast layout! Learn more

10-Day Weather Forecast

Advertisements
Track Severe Weather on mobile